createdAt,value
2023-05-03T00:01:28.614Z,3.38
2023-05-03T00:03:55.642Z,3.49
2023-05-03T00:06:22.791Z,3.27
2023-05-03T00:08:49.832Z,3.37
2023-05-03T00:11:16.872Z,3.22
2023-05-03T00:13:43.905Z,3.14
2023-05-03T00:16:10.889Z,3.27
2023-05-03T00:18:38.006Z,3.35
2023-05-03T00:21:05.435Z,3.30
2023-05-03T00:23:32.494Z,3.18
2023-05-03T00:25:59.489Z,3.12
2023-05-03T00:28:26.890Z,3.10
2023-05-03T00:30:54.111Z,3.12
2023-05-03T00:33:21.464Z,3.01
2023-05-03T00:35:48.534Z,2.85
2023-05-03T00:38:15.778Z,3.01
2023-05-03T00:40:43.109Z,2.69
2023-05-03T00:43:13.648Z,2.74
2023-05-03T00:45:41.032Z,2.98
2023-05-03T00:48:08.243Z,2.64
2023-05-03T00:50:36.949Z,2.66
2023-05-03T00:53:04.802Z,2.86
2023-05-03T00:55:33.191Z,2.75
2023-05-03T00:58:00.226Z,2.71
2023-05-03T01:00:27.342Z,2.55
2023-05-03T01:02:54.518Z,2.53
2023-05-03T01:05:22.797Z,2.44
2023-05-03T01:08:15.455Z,2.55
2023-05-03T01:10:51.477Z,2.26
2023-05-03T01:13:30.483Z,2.55
2023-05-03T01:16:09.408Z,2.38
2023-05-03T01:18:44.063Z,2.23
2023-05-03T01:21:16.437Z,2.41
2023-05-03T01:23:52.202Z,2.21
2023-05-03T01:26:23.507Z,2.26
2023-05-03T01:28:51.036Z,2.12
2023-05-03T01:31:28.852Z,2.12
2023-05-03T01:34:10.784Z,2.10
2023-05-03T01:36:40.861Z,2.02
2023-05-03T01:39:12.464Z,2.15
2023-05-03T01:41:40.571Z,2.14
2023-05-03T01:44:09.227Z,2.07
2023-05-03T01:46:43.681Z,2.08
2023-05-03T01:49:12.259Z,1.83
2023-05-03T01:51:39.610Z,1.87
2023-05-03T01:54:06.664Z,2.12
2023-05-03T01:56:36.630Z,1.96
2023-05-03T01:59:04.320Z,2.01
2023-05-03T02:01:31.492Z,2.12
2023-05-03T02:03:58.600Z,1.90
2023-05-03T02:06:26.229Z,2.09
2023-05-03T02:08:54.115Z,2.05
2023-05-03T02:11:21.454Z,2.00
2023-05-03T02:13:50.638Z,1.81
2023-05-03T02:16:18.306Z,1.92
2023-05-03T02:18:45.438Z,1.61
2023-05-03T02:21:13.145Z,1.82
2023-05-03T02:23:40.272Z,1.73
2023-05-03T02:26:07.913Z,1.66
2023-05-03T02:28:35.107Z,1.75
2023-05-03T02:31:02.755Z,1.67
2023-05-03T02:33:29.803Z,1.77
2023-05-03T02:35:56.837Z,1.59
2023-05-03T02:38:23.997Z,1.75
2023-05-03T02:40:51.605Z,1.79
2023-05-03T02:43:18.798Z,1.70
2023-05-03T02:45:45.895Z,1.45
2023-05-03T02:48:13.237Z,1.37
2023-05-03T02:50:40.922Z,1.53
2023-05-03T02:53:08.515Z,1.47
2023-05-03T02:55:36.694Z,1.60
2023-05-03T02:58:04.072Z,1.49
2023-05-03T03:00:31.256Z,1.18
2023-05-03T03:02:58.493Z,1.47
2023-05-03T03:05:25.729Z,1.37
2023-05-03T03:07:52.769Z,1.40
2023-05-03T03:10:20.148Z,1.08
2023-05-03T03:12:48.732Z,1.30
2023-05-03T03:15:24.643Z,1.29
2023-05-03T03:17:52.005Z,1.36
2023-05-03T03:20:19.226Z,1.39
2023-05-03T03:22:48.179Z,1.35
2023-05-03T03:25:15.996Z,1.13
2023-05-03T03:27:43.023Z,1.22
2023-05-03T03:30:10.477Z,1.03
2023-05-03T03:32:45.409Z,1.21
2023-05-03T03:35:18.308Z,1.06
2023-05-03T03:37:45.418Z,1.21
2023-05-03T03:40:13.253Z,1.26
2023-05-03T03:42:40.750Z,1.08
2023-05-03T03:45:08.570Z,1.01
2023-05-03T03:47:35.687Z,1.07
2023-05-03T03:50:03.018Z,1.10
2023-05-03T03:52:32.086Z,1.17
2023-05-03T03:54:59.233Z,1.10
2023-05-03T03:57:30.059Z,1.20
2023-05-03T03:59:58.281Z,1.26
2023-05-03T04:02:27.618Z,1.25
2023-05-03T04:04:54.682Z,1.21
2023-05-03T04:07:22.396Z,1.16
2023-05-03T04:09:49.855Z,1.02
2023-05-03T04:12:17.520Z,1.12
2023-05-03T04:14:46.954Z,1.15
2023-05-03T04:17:14.175Z,1.07
2023-05-03T04:19:41.696Z,1.21
2023-05-03T04:22:09.395Z,1.07
2023-05-03T04:24:39.566Z,1.12
2023-05-03T04:27:08.720Z,1.06
2023-05-03T04:29:38.636Z,1.14
2023-05-03T04:32:07.724Z,1.25
2023-05-03T04:34:36.082Z,1.38
2023-05-03T04:37:05.095Z,1.42
2023-05-03T04:39:32.811Z,1.47
2023-05-03T04:42:00.158Z,1.41
2023-05-03T04:44:27.674Z,1.50
2023-05-03T04:46:54.902Z,1.21
2023-05-03T04:49:22.461Z,1.51
2023-05-03T04:51:49.493Z,1.59
2023-05-03T04:54:17.708Z,1.52
2023-05-03T04:56:44.770Z,1.77
2023-05-03T04:59:16.536Z,1.87
2023-05-03T05:01:43.808Z,1.77
2023-05-03T05:04:11.163Z,1.68
2023-05-03T05:06:43.385Z,1.70
2023-05-03T05:09:22.647Z,2.04
2023-05-03T05:11:57.214Z,2.22
2023-05-03T05:14:28.162Z,2.17
2023-05-03T05:16:55.401Z,2.22
2023-05-03T05:19:22.817Z,2.09
2023-05-03T05:21:51.472Z,2.33
2023-05-03T05:24:19.296Z,2.57
2023-05-03T05:26:46.930Z,2.35
2023-05-03T05:29:15.449Z,2.52
2023-05-03T05:31:43.049Z,2.66
2023-05-03T05:34:11.137Z,2.85
2023-05-03T05:36:38.292Z,3.00
2023-05-03T05:39:09.416Z,2.97
2023-05-03T05:41:36.442Z,3.05
2023-05-03T05:44:03.927Z,3.00
2023-05-03T05:46:31.500Z,3.53
2023-05-03T05:48:59.316Z,3.32
2023-05-03T05:51:27.944Z,3.32
2023-05-03T05:53:55.375Z,3.63
2023-05-03T05:56:23.714Z,3.63
2023-05-03T05:58:50.839Z,3.58
2023-05-03T06:01:18.030Z,4.00
2023-05-03T06:03:45.519Z,3.98
2023-05-03T06:06:12.568Z,3.96
2023-05-03T06:08:39.670Z,4.15
2023-05-03T06:11:07.695Z,4.17
2023-05-03T06:13:38.319Z,4.45
2023-05-03T06:16:06.846Z,4.75
2023-05-03T06:18:33.855Z,4.96
2023-05-03T06:21:00.936Z,4.94
2023-05-03T06:23:28.134Z,5.20
2023-05-03T06:25:57.433Z,5.20
2023-05-03T06:28:25.419Z,5.40
2023-05-03T06:30:55.021Z,5.48
2023-05-03T06:33:22.421Z,5.74
2023-05-03T06:35:51.932Z,5.65
2023-05-03T06:38:19.857Z,5.96
2023-05-03T06:40:47.756Z,6.05
2023-05-03T06:43:14.824Z,6.17
2023-05-03T06:45:45.199Z,6.31
2023-05-03T06:48:12.273Z,6.19
2023-05-03T06:50:39.852Z,6.28
2023-05-03T06:53:06.851Z,6.65
2023-05-03T06:55:33.988Z,6.76
2023-05-03T06:58:01.440Z,7.05
2023-05-03T07:00:28.669Z,7.15
2023-05-03T07:02:56.641Z,7.55
2023-05-03T07:05:23.698Z,7.74
2023-05-03T07:07:50.874Z,7.74
2023-05-03T07:10:18.006Z,8.24
2023-05-03T07:12:44.983Z,8.37
2023-05-03T07:15:12.082Z,8.42
2023-05-03T07:17:39.077Z,8.75
2023-05-03T07:20:07.076Z,8.67
2023-05-03T07:22:34.083Z,8.73
2023-05-03T07:25:01.221Z,8.90
2023-05-03T07:27:28.277Z,9.02
2023-05-03T07:29:55.363Z,9.19
2023-05-03T07:32:22.727Z,9.10
2023-05-03T07:34:50.127Z,9.22
2023-05-03T07:37:17.389Z,9.12
2023-05-03T07:39:45.500Z,9.31
2023-05-03T07:42:12.556Z,9.35
2023-05-03T07:44:39.531Z,9.36
2023-05-03T07:47:06.552Z,9.29
2023-05-03T07:49:35.705Z,9.65
2023-05-03T07:52:03.052Z,9.61
2023-05-03T07:54:30.292Z,9.83
2023-05-03T07:56:57.422Z,9.79
2023-05-03T07:59:24.430Z,9.94
2023-05-03T08:01:51.474Z,9.91
2023-05-03T08:04:18.775Z,10.12
2023-05-03T08:06:46.096Z,9.89
2023-05-03T08:09:13.980Z,9.93
2023-05-03T08:11:43.184Z,10.03
2023-05-03T08:14:11.367Z,9.90
2023-05-03T08:16:38.721Z,9.97
2023-05-03T08:19:05.970Z,10.02
2023-05-03T08:21:33.223Z,10.32
2023-05-03T08:24:00.820Z,10.42
2023-05-03T08:26:29.705Z,10.26
2023-05-03T08:28:56.912Z,10.34
2023-05-03T08:31:24.064Z,10.23
2023-05-03T08:33:51.681Z,10.16
2023-05-03T08:36:18.912Z,10.59
2023-05-03T08:38:45.951Z,10.71
2023-05-03T08:41:26.735Z,10.60
2023-05-03T08:43:55.332Z,10.46
2023-05-03T08:46:22.567Z,10.33
2023-05-03T08:48:52.612Z,10.50
2023-05-03T08:51:21.402Z,10.72
2023-05-03T08:53:49.759Z,10.88
2023-05-03T08:56:26.893Z,10.99
2023-05-03T08:58:53.875Z,11.00
2023-05-03T09:01:21.023Z,11.10
2023-05-03T09:03:51.936Z,11.17
2023-05-03T09:06:26.251Z,11.27
2023-05-03T09:08:54.648Z,11.12
2023-05-03T09:11:32.377Z,11.01
2023-05-03T09:14:16.942Z,10.93
2023-05-03T09:16:45.613Z,11.08
2023-05-03T09:19:15.065Z,11.46
2023-05-03T09:21:44.214Z,11.68
2023-05-03T09:24:21.758Z,11.70
2023-05-03T09:26:51.050Z,11.91
2023-05-03T09:29:27.645Z,11.81
2023-05-03T09:32:00.383Z,11.75
2023-05-03T09:34:27.433Z,12.06
2023-05-03T09:36:55.097Z,11.79
2023-05-03T09:39:22.091Z,12.06
2023-05-03T09:41:49.525Z,12.13
2023-05-03T09:44:19.420Z,12.21
2023-05-03T09:47:06.124Z,11.90
2023-05-03T09:49:34.037Z,12.38
2023-05-03T09:52:01.947Z,12.49
2023-05-03T09:54:31.365Z,12.33
2023-05-03T09:56:59.109Z,12.55
2023-05-03T09:59:26.167Z,12.66
2023-05-03T10:01:57.545Z,12.87
2023-05-03T10:04:27.813Z,13.04
2023-05-03T10:07:00.423Z,13.41
2023-05-03T10:09:37.236Z,13.11
2023-05-03T10:12:08.525Z,13.00
2023-05-03T10:14:36.239Z,13.16
2023-05-03T10:17:08.777Z,13.14
2023-05-03T10:19:46.023Z,13.13
2023-05-03T10:22:13.158Z,13.12
2023-05-03T10:25:00.246Z,13.17
2023-05-03T10:27:45.803Z,12.94
2023-05-03T10:30:34.706Z,13.13
2023-05-03T10:33:28.630Z,13.21
2023-05-03T10:35:56.144Z,13.73
2023-05-03T10:38:25.840Z,13.84
2023-05-03T10:40:54.941Z,14.01
2023-05-03T10:43:46.041Z,13.58
2023-05-03T10:46:31.351Z,13.61
2023-05-03T10:49:19.490Z,13.39
2023-05-03T10:51:46.773Z,13.31
2023-05-03T10:54:13.979Z,13.56
2023-05-03T10:56:55.996Z,14.01
2023-05-03T10:59:24.197Z,14.12
2023-05-03T11:01:52.984Z,14.27
2023-05-03T11:04:33.882Z,14.41
2023-05-03T11:07:01.385Z,14.16
2023-05-03T11:09:33.211Z,14.58
2023-05-03T11:12:04.384Z,14.55
2023-05-03T11:14:31.733Z,14.72
2023-05-03T11:16:58.858Z,14.65
2023-05-03T11:19:26.118Z,14.82
2023-05-03T11:21:53.378Z,14.87
2023-05-03T11:24:20.525Z,14.81
2023-05-03T11:26:48.724Z,14.85
2023-05-03T11:29:17.185Z,14.90
2023-05-03T11:31:44.568Z,14.78
2023-05-03T11:34:12.839Z,14.89
2023-05-03T11:36:41.550Z,15.08
2023-05-03T11:39:09.241Z,14.84
2023-05-03T11:41:36.793Z,15.21
2023-05-03T11:44:16.123Z,14.50
2023-05-03T11:46:46.475Z,14.76
2023-05-03T11:49:18.400Z,14.83
2023-05-03T11:51:48.420Z,15.01
2023-05-03T11:54:25.131Z,15.03
2023-05-03T11:56:57.901Z,14.92
2023-05-03T11:59:38.925Z,15.23
2023-05-03T12:02:11.657Z,15.45
2023-05-03T12:04:44.661Z,15.61
2023-05-03T12:07:14.719Z,15.19
2023-05-03T12:09:50.321Z,15.34
2023-05-03T12:12:31.588Z,15.42
2023-05-03T12:15:03.490Z,15.79
2023-05-03T12:17:44.152Z,16.06
2023-05-03T12:20:51.847Z,16.17
2023-05-03T12:23:09.898Z,16.35
2023-05-03T12:25:39.635Z,16.16
2023-05-03T12:28:19.842Z,15.92
2023-05-03T12:30:48.318Z,15.78
2023-05-03T12:33:16.992Z,16.05
2023-05-03T12:35:47.794Z,16.03
2023-05-03T12:38:17.388Z,15.91
2023-05-03T12:40:46.724Z,16.14
2023-05-03T12:43:13.972Z,16.36
2023-05-03T12:45:41.433Z,16.60
2023-05-03T12:48:09.181Z,16.87
2023-05-03T12:50:38.555Z,16.87
2023-05-03T12:53:09.598Z,16.71
2023-05-03T12:55:43.252Z,16.84
2023-05-03T13:00:53.485Z,16.57
2023-05-03T13:03:33.492Z,16.89
2023-05-03T13:06:12.433Z,16.92
2023-05-03T13:08:49.340Z,17.33
2023-05-03T13:11:18.975Z,17.30
2023-05-03T13:13:46.412Z,17.40
2023-05-03T13:16:14.442Z,17.46
2023-05-03T13:18:43.223Z,17.65
2023-05-03T13:21:10.424Z,17.62
2023-05-03T13:23:37.813Z,17.53
2023-05-03T13:26:05.011Z,17.49
2023-05-03T13:28:32.036Z,17.39
2023-05-03T13:30:59.061Z,17.42
2023-05-03T13:33:26.494Z,17.38
2023-05-03T13:35:53.471Z,17.31
2023-05-03T13:38:20.713Z,17.46
2023-05-03T13:40:47.720Z,17.59
2023-05-03T13:43:14.819Z,17.60
2023-05-03T13:45:41.906Z,17.75
2023-05-03T13:48:16.218Z,17.79
2023-05-03T13:50:45.902Z,18.00
2023-05-03T13:53:12.982Z,17.98
2023-05-03T13:55:40.109Z,18.37
2023-05-03T13:58:07.131Z,18.01
2023-05-03T14:00:34.163Z,18.45
2023-05-03T14:03:01.443Z,18.23
2023-05-03T14:05:28.962Z,18.19
2023-05-03T14:07:56.713Z,18.05
2023-05-03T14:10:24.150Z,18.15
2023-05-03T14:12:52.105Z,18.08
2023-05-03T14:15:19.335Z,17.89
2023-05-03T14:17:49.530Z,18.08
2023-05-03T14:20:19.975Z,18.08
2023-05-03T14:22:47.036Z,18.28
2023-05-03T14:25:14.123Z,18.01
2023-05-03T14:27:41.119Z,18.45
2023-05-03T14:30:09.399Z,18.53
2023-05-03T14:32:36.460Z,18.20
2023-05-03T14:35:03.999Z,18.35
2023-05-03T14:37:31.182Z,18.42
2023-05-03T14:39:58.450Z,18.42
2023-05-03T14:42:30.227Z,17.81
2023-05-03T14:44:57.425Z,18.66
2023-05-03T14:47:24.632Z,18.67
2023-05-03T14:49:52.032Z,18.59
2023-05-03T14:52:19.071Z,18.93
2023-05-03T14:54:46.224Z,18.81
2023-05-03T14:57:13.217Z,18.80
2023-05-03T14:59:40.379Z,19.11
2023-05-03T15:02:07.526Z,19.15
2023-05-03T15:04:37.008Z,19.36
2023-05-03T15:07:06.387Z,19.92
2023-05-03T15:09:33.863Z,20.54
2023-05-03T15:12:01.953Z,21.16
2023-05-03T15:14:29.055Z,22.01
2023-05-03T15:16:56.277Z,22.13
2023-05-03T15:19:23.367Z,22.76
2023-05-03T15:21:51.573Z,22.69
2023-05-03T15:24:18.845Z,23.11
2023-05-03T15:26:46.909Z,22.82
2023-05-03T15:29:15.270Z,22.48
2023-05-03T15:31:42.817Z,22.32
2023-05-03T15:34:12.237Z,23.41
2023-05-03T15:36:40.418Z,23.82
2023-05-03T15:39:07.649Z,23.62
2023-05-03T15:41:34.759Z,24.45
2023-05-03T15:44:05.177Z,24.22
2023-05-03T15:46:33.461Z,24.71
2023-05-03T15:49:00.941Z,24.61
2023-05-03T15:51:28.080Z,24.76
2023-05-03T15:53:55.641Z,24.58
2023-05-03T15:56:22.688Z,24.65
2023-05-03T15:58:50.338Z,24.68
2023-05-03T16:01:18.547Z,24.04
2023-05-03T16:03:46.145Z,23.86
2023-05-03T16:06:16.676Z,24.37
2023-05-03T16:08:44.208Z,25.05
2023-05-03T16:11:12.680Z,26.32
2023-05-03T16:13:39.710Z,26.28
2023-05-03T16:16:06.981Z,26.43
2023-05-03T16:18:34.058Z,26.16
2023-05-03T16:21:01.935Z,26.49
2023-05-03T16:23:28.990Z,27.02
2023-05-03T16:25:56.480Z,26.28
2023-05-03T16:28:23.547Z,26.56
2023-05-03T16:30:50.532Z,26.57
2023-05-03T16:33:18.140Z,26.79
2023-05-03T16:35:45.193Z,26.39
2023-05-03T16:38:12.299Z,26.13
2023-05-03T16:40:40.717Z,26.26
2023-05-03T16:43:07.854Z,25.99
2023-05-03T16:45:35.066Z,26.99
2023-05-03T16:48:04.816Z,26.52
2023-05-03T16:50:33.329Z,26.83
2023-05-03T16:53:00.331Z,26.35
2023-05-03T16:55:27.428Z,27.09
2023-05-03T16:57:54.465Z,27.15
2023-05-03T17:00:21.806Z,26.87
2023-05-03T17:02:49.155Z,27.09
2023-05-03T17:05:16.319Z,25.97
2023-05-03T17:07:43.369Z,26.67
2023-05-03T17:10:10.593Z,26.35
2023-05-03T17:12:37.868Z,25.76
2023-05-03T17:15:05.568Z,26.50
2023-05-03T17:17:32.976Z,25.80
2023-05-03T17:20:00.091Z,26.98
2023-05-03T17:22:27.929Z,25.91
2023-05-03T17:24:57.776Z,26.28
2023-05-03T17:27:24.911Z,25.93
2023-05-03T17:29:51.901Z,24.54
2023-05-03T17:32:19.217Z,22.38
2023-05-03T17:34:46.238Z,20.30
2023-05-03T17:37:13.363Z,19.16
2023-05-03T17:39:41.386Z,18.47
2023-05-03T17:42:08.941Z,17.99
2023-05-03T17:44:36.009Z,17.68
2023-05-03T17:47:04.478Z,17.53
2023-05-03T17:49:34.608Z,17.33
2023-05-03T17:52:01.684Z,17.08
2023-05-03T17:54:29.105Z,16.76
2023-05-03T17:56:56.170Z,16.97
2023-05-03T17:59:23.167Z,16.58
2023-05-03T18:01:50.206Z,16.80
2023-05-03T18:04:17.212Z,16.59
2023-05-03T18:06:44.415Z,16.51
2023-05-03T18:09:11.389Z,16.47
2023-05-03T18:11:39.914Z,16.31
2023-05-03T18:14:06.987Z,16.24
2023-05-03T18:16:33.963Z,16.12
2023-05-03T18:19:00.963Z,15.98
2023-05-03T18:21:28.591Z,15.89
2023-05-03T18:23:56.404Z,15.78
2023-05-03T18:26:23.643Z,15.66
2023-05-03T18:28:52.977Z,15.49
2023-05-03T18:31:21.415Z,15.44
2023-05-03T18:33:48.894Z,15.41
2023-05-03T18:36:17.001Z,15.27
2023-05-03T18:38:44.315Z,15.20
2023-05-03T18:41:16.458Z,15.07
2023-05-03T18:43:44.716Z,14.97
2023-05-03T18:46:17.255Z,14.86
2023-05-03T18:48:44.347Z,14.59
2023-05-03T18:51:11.674Z,14.60
2023-05-03T18:53:38.813Z,14.40
2023-05-03T18:56:06.102Z,14.36
2023-05-03T18:58:33.258Z,14.28
2023-05-03T19:01:00.581Z,14.22
2023-05-03T19:03:31.789Z,14.07
2023-05-03T19:06:04.057Z,14.06
2023-05-03T19:08:31.667Z,13.91
2023-05-03T19:11:10.705Z,13.81
2023-05-03T19:13:37.834Z,13.74
2023-05-03T19:16:05.445Z,13.46
2023-05-03T19:18:32.619Z,13.50
2023-05-03T19:20:59.934Z,13.21
2023-05-03T19:23:27.076Z,13.31
2023-05-03T19:25:54.104Z,13.20
2023-05-03T19:28:21.332Z,12.80
2023-05-03T19:30:51.667Z,12.86
2023-05-03T19:33:19.911Z,12.87
2023-05-03T19:35:47.615Z,12.52
2023-05-03T19:38:14.789Z,12.49
2023-05-03T19:40:42.152Z,12.21
2023-05-03T19:43:09.187Z,12.47
2023-05-03T19:45:41.832Z,12.44
2023-05-03T19:48:10.284Z,12.42
2023-05-03T19:50:37.434Z,12.28
2023-05-03T19:53:04.451Z,12.28
2023-05-03T19:55:31.577Z,12.20
2023-05-03T19:57:58.718Z,12.16
2023-05-03T20:00:27.398Z,11.66
2023-05-03T20:02:54.689Z,11.97
2023-05-03T20:05:21.965Z,11.82
2023-05-03T20:07:49.123Z,11.84
2023-05-03T20:10:16.235Z,11.62
2023-05-03T20:12:43.282Z,11.64
2023-05-03T20:15:11.563Z,11.58
2023-05-03T20:17:38.794Z,11.44
2023-05-03T20:20:07.345Z,11.53
2023-05-03T20:22:34.350Z,11.27
2023-05-03T20:25:01.335Z,11.28
2023-05-03T20:27:28.460Z,11.19
2023-05-03T20:29:56.594Z,11.10
2023-05-03T20:32:23.626Z,11.02
2023-05-03T20:34:50.629Z,10.97
2023-05-03T20:37:18.228Z,10.84
2023-05-03T20:39:45.318Z,10.47
2023-05-03T20:42:12.284Z,10.73
2023-05-03T20:44:39.278Z,10.66
2023-05-03T20:47:06.260Z,10.56
2023-05-03T20:49:33.320Z,10.34
2023-05-03T20:52:00.481Z,10.45
2023-05-03T20:54:27.458Z,10.42
2023-05-03T20:56:54.434Z,10.40
2023-05-03T20:59:21.481Z,10.36
2023-05-03T21:01:48.542Z,10.30
2023-05-03T21:04:15.886Z,10.13
2023-05-03T21:06:45.057Z,10.05
2023-05-03T21:09:12.414Z,10.03
2023-05-03T21:11:39.683Z,9.85
2023-05-03T21:14:06.664Z,9.74
2023-05-03T21:16:33.979Z,9.71
2023-05-03T21:19:02.884Z,9.78
2023-05-03T21:21:30.811Z,9.54
2023-05-03T21:23:58.060Z,9.59
2023-05-03T21:26:25.140Z,9.58
2023-05-03T21:28:52.127Z,9.27
2023-05-03T21:31:19.207Z,9.54
2023-05-03T21:33:46.245Z,9.51
2023-05-03T21:36:13.670Z,9.44
2023-05-03T21:38:40.751Z,9.40
2023-05-03T21:41:08.230Z,9.37
2023-05-03T21:43:35.795Z,9.18
2023-05-03T21:46:07.830Z,9.20
2023-05-03T21:48:37.078Z,9.09
2023-05-03T21:51:04.113Z,8.92
2023-05-03T21:53:31.271Z,8.97
2023-05-03T21:55:58.232Z,8.81
2023-05-03T21:58:25.902Z,8.89
2023-05-03T22:00:53.485Z,8.86
2023-05-03T22:03:20.586Z,8.84
2023-05-03T22:05:48.715Z,8.73
2023-05-03T22:08:18.011Z,8.63
2023-05-03T22:10:45.580Z,8.65
2023-05-03T22:13:12.967Z,8.54
2023-05-03T22:15:40.194Z,8.32
2023-05-03T22:18:07.469Z,8.39
2023-05-03T22:20:34.617Z,8.25
2023-05-03T22:23:01.761Z,8.33
2023-05-03T22:25:31.951Z,8.22
2023-05-03T22:27:59.547Z,8.30
2023-05-03T22:30:26.608Z,8.20
2023-05-03T22:32:53.830Z,8.15
2023-05-03T22:35:21.143Z,8.07
2023-05-03T22:37:48.219Z,8.07
2023-05-03T22:40:15.246Z,8.06
2023-05-03T22:42:42.411Z,7.89
2023-05-03T22:45:09.801Z,7.97
2023-05-03T22:47:36.844Z,7.91
2023-05-03T22:50:04.330Z,7.84
2023-05-03T22:52:31.852Z,7.70
2023-05-03T22:55:00.445Z,7.77
2023-05-03T22:57:27.716Z,7.65
2023-05-03T22:59:55.152Z,7.57
2023-05-03T23:02:22.182Z,7.57
2023-05-03T23:04:49.216Z,7.41
2023-05-03T23:07:16.217Z,7.21
2023-05-03T23:09:43.996Z,7.51
2023-05-03T23:12:11.764Z,7.37
2023-05-03T23:14:42.212Z,7.28
2023-05-03T23:17:10.610Z,7.02
2023-05-03T23:19:38.016Z,7.22
2023-05-03T23:22:05.373Z,7.24
2023-05-03T23:24:34.576Z,6.99
2023-05-03T23:27:01.779Z,7.00
2023-05-03T23:29:29.259Z,7.16
2023-05-03T23:31:56.957Z,6.83
2023-05-03T23:34:24.667Z,7.02
2023-05-03T23:36:51.653Z,6.94
2023-05-03T23:39:18.727Z,6.90
2023-05-03T23:41:45.911Z,6.88
2023-05-03T23:44:13.040Z,6.73
2023-05-03T23:46:40.085Z,6.73
2023-05-03T23:49:07.516Z,6.81
2023-05-03T23:51:34.683Z,6.82
2023-05-03T23:54:01.667Z,6.81
2023-05-03T23:56:28.680Z,6.80
2023-05-03T23:58:55.784Z,6.73
